Houlton, Maine
Current Conditions -  °F | °C
As of 1:53 AM on Saturday 20 Dec 2014 (Local Time) from KHUL Reporting Station
Clear Clear  
Wind Chill:   Ceiling: Unl
Heat Index:   Visibility: 9mi
Dew Point:   Wind: 3mph
Humidity: 84%   Direction: 30°NNE
Pressure: 30.18"   Gusts: NA
Location:  46.13°N, 67.84°W
Report Text: KHUL 200653Z AUTO 03003KT 9SM CLR M13/M15 A3018 RMK AO2 SLP229 I1000 T11281150
Loading
Personal Weather Stations






























Interactive Weather Map New forecast layout! Learn more

10-Day Weather Forecast

Advertisements
Track Severe Weather on mobile